createdAt,value
2023-02-09T00:01:05.724Z,63.48
2023-02-09T00:03:32.847Z,63.39
2023-02-09T00:06:01.547Z,63.51
2023-02-09T00:08:29.986Z,63.55
2023-02-09T00:10:58.055Z,63.58
2023-02-09T00:13:25.210Z,63.86
2023-02-09T00:15:56.547Z,63.91
2023-02-09T00:18:25.956Z,64.03
2023-02-09T00:21:00.211Z,64.09
2023-02-09T00:23:28.574Z,63.98
2023-02-09T00:26:01.851Z,63.97
2023-02-09T00:28:29.071Z,63.88
2023-02-09T00:30:56.000Z,63.68
2023-02-09T00:33:22.892Z,63.71
2023-02-09T00:35:49.718Z,63.65
2023-02-09T00:38:16.595Z,63.68
2023-02-09T00:40:44.044Z,63.76
2023-02-09T00:43:11.273Z,63.96
2023-02-09T00:45:38.440Z,64.19
2023-02-09T00:48:05.930Z,64.35
2023-02-09T00:50:32.901Z,64.54
2023-02-09T00:52:59.717Z,64.82
2023-02-09T00:55:26.834Z,64.78
2023-02-09T00:57:54.064Z,65.15
2023-02-09T01:00:21.227Z,65.08
2023-02-09T01:02:49.092Z,65.24
2023-02-09T01:05:16.270Z,65.30
2023-02-09T01:07:45.052Z,65.36
2023-02-09T01:10:12.046Z,65.60
2023-02-09T01:12:40.322Z,65.67
2023-02-09T01:15:07.825Z,65.57
2023-02-09T01:17:46.587Z,65.61
2023-02-09T01:20:13.695Z,65.48
2023-02-09T01:22:42.072Z,65.53
2023-02-09T01:25:09.303Z,65.75
2023-02-09T01:27:36.104Z,65.64
2023-02-09T01:30:03.560Z,65.44
2023-02-09T01:32:32.240Z,65.28
2023-02-09T01:34:59.552Z,65.14
2023-02-09T01:37:26.431Z,65.18
2023-02-09T01:39:53.320Z,64.98
2023-02-09T01:42:20.273Z,64.95
2023-02-09T01:45:32.268Z,65.00
2023-02-09T01:48:03.213Z,64.94
2023-02-09T01:50:33.128Z,64.85
2023-02-09T01:53:00.217Z,64.82
2023-02-09T01:55:28.515Z,64.86
2023-02-09T01:57:58.350Z,64.66
2023-02-09T02:00:25.258Z,64.49
2023-02-09T02:02:55.205Z,64.60
2023-02-09T02:05:24.220Z,64.41
2023-02-09T02:07:53.681Z,64.75
2023-02-09T02:10:20.795Z,64.74
2023-02-09T02:12:48.121Z,64.69
2023-02-09T02:15:15.232Z,64.85
2023-02-09T02:18:10.226Z,64.93
2023-02-09T02:20:59.404Z,64.95
2023-02-09T02:24:18.105Z,65.01
2023-02-09T02:26:50.780Z,64.89
2023-02-09T02:29:46.623Z,65.11
2023-02-09T02:32:23.734Z,65.14
2023-02-09T02:34:57.365Z,64.98
2023-02-09T02:37:42.266Z,65.11
2023-02-09T02:40:37.404Z,65.30
2023-02-09T02:43:09.190Z,65.44
2023-02-09T02:45:35.962Z,65.34
2023-02-09T02:48:21.445Z,65.26
2023-02-09T02:51:01.139Z,65.38
2023-02-09T02:53:29.423Z,65.62
2023-02-09T02:55:59.562Z,65.49
2023-02-09T02:58:26.532Z,65.60
2023-02-09T03:00:55.026Z,65.77
2023-02-09T03:03:24.512Z,65.85
2023-02-09T03:05:51.612Z,65.78
2023-02-09T03:08:18.424Z,65.67
2023-02-09T03:10:45.632Z,65.89
2023-02-09T03:13:19.960Z,65.94
2023-02-09T03:16:05.350Z,65.99
2023-02-09T03:18:37.669Z,66.25
2023-02-09T03:21:31.483Z,66.71
2023-02-09T03:24:11.313Z,66.91
2023-02-09T03:26:45.986Z,67.03
2023-02-09T03:29:13.094Z,67.43
2023-02-09T03:31:40.023Z,67.60
2023-02-09T03:34:06.819Z,67.83
2023-02-09T03:36:36.830Z,68.03
2023-02-09T03:39:03.844Z,68.06
2023-02-09T03:41:30.768Z,68.14
2023-02-09T03:44:15.990Z,68.39
2023-02-09T03:46:43.055Z,68.58
2023-02-09T03:49:10.424Z,68.56
2023-02-09T03:51:37.299Z,68.82
2023-02-09T03:54:04.098Z,68.85
2023-02-09T03:56:30.930Z,68.94
2023-02-09T03:58:57.787Z,69.10
2023-02-09T04:01:24.815Z,69.24
2023-02-09T04:03:51.751Z,69.25
2023-02-09T04:06:18.548Z,69.37
2023-02-09T04:08:46.635Z,69.30
2023-02-09T04:11:13.477Z,69.43
2023-02-09T04:13:41.505Z,69.56
2023-02-09T04:16:08.582Z,69.45
2023-02-09T04:18:35.513Z,69.48
2023-02-09T04:21:02.361Z,69.35
2023-02-09T04:23:29.619Z,69.43
2023-02-09T04:25:56.401Z,69.34
2023-02-09T04:28:23.657Z,69.45
2023-02-09T04:30:54.364Z,69.47
2023-02-09T04:33:22.311Z,69.42
2023-02-09T04:35:49.417Z,69.42
2023-02-09T04:38:18.862Z,69.35
2023-02-09T04:40:47.099Z,69.24
2023-02-09T04:43:14.306Z,69.19
2023-02-09T04:45:41.350Z,69.10
2023-02-09T04:48:11.107Z,69.17
2023-02-09T04:50:37.921Z,69.22
2023-02-09T04:53:04.825Z,69.04
2023-02-09T04:55:31.788Z,69.02
2023-02-09T04:58:17.671Z,69.01
2023-02-09T05:00:45.002Z,69.03
2023-02-09T05:03:12.954Z,69.06
2023-02-09T05:05:40.747Z,69.07
2023-02-09T05:08:08.147Z,69.27
2023-02-09T05:10:35.078Z,69.43
2023-02-09T05:13:02.148Z,69.33
2023-02-09T05:15:29.161Z,69.48
2023-02-09T05:17:56.163Z,69.40
2023-02-09T05:20:23.061Z,69.43
2023-02-09T05:22:51.644Z,69.26
2023-02-09T05:25:18.560Z,69.28
2023-02-09T05:27:46.321Z,69.48
2023-02-09T05:30:15.891Z,69.52
2023-02-09T05:32:43.109Z,69.46
2023-02-09T05:35:10.202Z,69.65
2023-02-09T05:37:37.131Z,69.49
2023-02-09T05:40:04.447Z,69.43
2023-02-09T05:42:33.068Z,69.34
2023-02-09T05:45:00.902Z,69.28
2023-02-09T05:47:27.886Z,69.35
2023-02-09T05:49:54.898Z,69.23
2023-02-09T05:52:22.868Z,69.26
2023-02-09T05:54:49.836Z,69.30
2023-02-09T05:57:17.217Z,69.27
2023-02-09T05:59:44.136Z,69.15
2023-02-09T06:02:11.628Z,69.21
2023-02-09T06:04:38.580Z,69.28
2023-02-09T06:07:05.707Z,69.33
2023-02-09T06:09:32.883Z,69.33
2023-02-09T06:12:00.675Z,69.42
2023-02-09T06:14:27.605Z,69.58
2023-02-09T06:16:55.834Z,69.56
2023-02-09T06:19:22.977Z,69.50
2023-02-09T06:21:49.873Z,69.51
2023-02-09T06:24:16.819Z,69.54
2023-02-09T06:26:43.600Z,69.59
2023-02-09T06:29:10.755Z,69.46
2023-02-09T06:31:37.854Z,69.29
2023-02-09T06:34:05.251Z,69.19
2023-02-09T06:36:32.346Z,69.04
2023-02-09T06:38:59.871Z,68.87
2023-02-09T06:41:27.643Z,68.64
2023-02-09T06:43:54.933Z,68.53
2023-02-09T06:46:21.747Z,68.43
2023-02-09T06:48:48.841Z,68.17
2023-02-09T06:51:16.522Z,68.28
2023-02-09T06:53:43.508Z,68.50
2023-02-09T06:56:10.973Z,68.66
2023-02-09T06:58:38.078Z,68.71
2023-02-09T07:01:09.904Z,68.60
2023-02-09T07:03:37.186Z,68.78
2023-02-09T07:06:09.362Z,68.88
2023-02-09T07:08:36.642Z,68.92
2023-02-09T07:11:06.000Z,69.04
2023-02-09T07:13:33.299Z,69.04
2023-02-09T07:16:02.775Z,69.18
2023-02-09T07:18:32.825Z,69.18
2023-02-09T07:21:04.806Z,69.33
2023-02-09T07:23:31.921Z,69.35
2023-02-09T07:26:04.077Z,69.67
2023-02-09T07:28:33.239Z,69.59
2023-02-09T07:31:05.798Z,69.61
2023-02-09T07:33:33.088Z,69.74
2023-02-09T07:36:06.108Z,69.82
2023-02-09T07:38:34.258Z,69.87
2023-02-09T07:41:02.302Z,69.47
2023-02-09T07:43:29.253Z,69.51
2023-02-09T07:46:00.572Z,69.50
2023-02-09T07:48:27.710Z,69.45
2023-02-09T07:50:54.609Z,69.46
2023-02-09T07:53:21.544Z,69.43
2023-02-09T07:55:48.565Z,69.44
2023-02-09T07:58:17.678Z,69.48
2023-02-09T08:00:53.861Z,69.49
2023-02-09T08:03:22.076Z,69.52
2023-02-09T08:05:58.478Z,69.70
2023-02-09T08:08:26.258Z,69.79
2023-02-09T08:10:54.334Z,69.64
2023-02-09T08:13:22.457Z,69.88
2023-02-09T08:15:52.111Z,70.02
2023-02-09T08:18:21.461Z,70.13
2023-02-09T08:20:50.108Z,70.31
2023-02-09T08:23:23.334Z,70.53
2023-02-09T08:25:51.003Z,70.75
2023-02-09T08:28:19.311Z,70.80
2023-02-09T08:30:47.178Z,70.84
2023-02-09T08:33:14.689Z,71.19
2023-02-09T08:35:42.336Z,71.33
2023-02-09T08:38:09.396Z,71.59
2023-02-09T08:40:40.756Z,71.61
2023-02-09T08:43:08.055Z,71.74
2023-02-09T08:45:36.614Z,71.92
2023-02-09T08:48:05.920Z,72.02
2023-02-09T08:50:33.801Z,71.96
2023-02-09T08:53:02.406Z,72.05
2023-02-09T08:55:31.483Z,72.17
2023-02-09T08:57:58.633Z,72.20
2023-02-09T09:00:26.408Z,72.22
2023-02-09T09:02:54.553Z,72.11
2023-02-09T09:05:22.418Z,72.10
2023-02-09T09:07:51.416Z,72.18
2023-02-09T09:10:19.438Z,72.13
2023-02-09T09:12:47.311Z,72.01
2023-02-09T09:15:14.171Z,72.02
2023-02-09T09:17:42.721Z,71.96
2023-02-09T09:20:10.158Z,71.70
2023-02-09T09:22:39.378Z,71.50
2023-02-09T09:25:06.632Z,71.21
2023-02-09T09:27:34.473Z,71.09
2023-02-09T09:30:02.762Z,70.92
2023-02-09T09:32:31.763Z,70.78
2023-02-09T09:34:58.816Z,70.53
2023-02-09T09:37:25.937Z,70.53
2023-02-09T09:39:53.215Z,70.04
2023-02-09T09:42:23.175Z,69.55
2023-02-09T09:44:50.351Z,69.03
2023-02-09T09:47:22.392Z,68.38
2023-02-09T09:49:49.263Z,68.03
2023-02-09T09:52:19.304Z,67.43
2023-02-09T09:54:46.158Z,66.95
2023-02-09T09:57:20.225Z,66.71
2023-02-09T09:59:47.879Z,66.52
2023-02-09T10:02:29.592Z,65.78
2023-02-09T10:05:05.097Z,65.25
2023-02-09T10:07:32.475Z,64.84
2023-02-09T10:10:05.620Z,64.23
2023-02-09T10:12:38.641Z,63.40
2023-02-09T10:15:35.843Z,62.86
2023-02-09T10:18:11.183Z,62.40
2023-02-09T10:20:56.271Z,61.83
2023-02-09T10:23:47.654Z,61.12
2023-02-09T10:26:23.364Z,60.26
2023-02-09T10:28:56.040Z,59.81
2023-02-09T10:31:35.612Z,59.16
2023-02-09T10:34:30.386Z,58.45
2023-02-09T10:37:19.976Z,57.93
2023-02-09T10:40:00.720Z,57.26
2023-02-09T10:42:30.274Z,56.29
2023-02-09T10:45:04.958Z,55.69
2023-02-09T10:47:32.223Z,54.88
2023-02-09T10:50:00.720Z,53.99
2023-02-09T10:52:35.522Z,53.46
2023-02-09T10:55:30.214Z,52.86
2023-02-09T10:58:09.565Z,52.34
2023-02-09T11:00:58.115Z,51.69
2023-02-09T11:03:25.174Z,51.19
2023-02-09T11:06:00.945Z,50.84
2023-02-09T11:08:42.408Z,50.38
2023-02-09T11:11:21.409Z,49.93
2023-02-09T11:13:48.329Z,49.41
2023-02-09T11:16:33.540Z,49.11
2023-02-09T11:19:13.896Z,48.65
2023-02-09T11:21:50.015Z,48.18
2023-02-09T11:24:26.412Z,47.54
2023-02-09T11:27:04.087Z,47.13
2023-02-09T11:29:40.932Z,46.63
2023-02-09T11:32:20.337Z,46.17
2023-02-09T11:35:15.029Z,45.50
2023-02-09T11:38:05.135Z,45.44
2023-02-09T11:40:39.748Z,45.32
2023-02-09T11:43:09.763Z,44.93
2023-02-09T11:46:03.746Z,45.02
2023-02-09T11:48:32.574Z,44.94
2023-02-09T11:51:13.587Z,44.91
2023-02-09T11:53:56.709Z,44.90
2023-02-09T11:56:24.331Z,44.34
2023-02-09T11:58:57.187Z,44.51
2023-02-09T12:01:43.862Z,44.47
2023-02-09T12:04:16.403Z,43.92
2023-02-09T12:06:44.644Z,43.85
2023-02-09T12:09:18.209Z,43.70
2023-02-09T12:12:15.267Z,43.64
2023-02-09T12:14:53.487Z,44.23
2023-02-09T12:17:29.274Z,44.36
2023-02-09T12:19:59.982Z,44.32
2023-02-09T12:22:33.919Z,44.66
2023-02-09T12:25:36.045Z,44.47
2023-02-09T12:28:10.528Z,44.28
2023-02-09T12:30:40.795Z,43.85
2023-02-09T12:33:23.054Z,44.07
2023-02-09T12:36:27.830Z,43.99
2023-02-09T12:39:05.515Z,43.76
2023-02-09T12:41:33.469Z,43.44
2023-02-09T12:44:09.820Z,43.29
2023-02-09T12:46:55.073Z,43.07
2023-02-09T12:49:33.633Z,43.35
2023-02-09T12:52:00.449Z,43.34
2023-02-09T12:54:36.254Z,43.39
2023-02-09T12:57:15.416Z,43.54
2023-02-09T13:00:03.696Z,43.38
2023-02-09T13:02:51.724Z,43.61
2023-02-09T13:05:23.082Z,43.64
2023-02-09T13:08:12.665Z,43.30
2023-02-09T13:11:10.724Z,43.42
2023-02-09T13:13:41.317Z,43.27
2023-02-09T13:16:29.214Z,43.41
2023-02-09T13:19:06.570Z,43.31
2023-02-09T13:21:39.079Z,43.09
2023-02-09T13:24:10.096Z,43.14
2023-02-09T13:26:48.335Z,43.23
2023-02-09T13:29:22.010Z,42.84
2023-02-09T13:32:14.299Z,43.00
2023-02-09T13:34:41.812Z,43.08
2023-02-09T13:37:47.156Z,43.62
2023-02-09T13:40:23.067Z,43.27
2023-02-09T13:43:03.023Z,43.33
2023-02-09T13:45:30.851Z,43.29
2023-02-09T13:48:03.703Z,43.35
2023-02-09T13:50:31.407Z,43.41
2023-02-09T13:53:09.158Z,43.45
2023-02-09T13:55:40.252Z,43.42
2023-02-09T13:58:07.843Z,43.56
2023-02-09T14:00:40.852Z,43.57
2023-02-09T14:03:16.309Z,43.80
2023-02-09T14:05:46.559Z,43.89
2023-02-09T14:08:15.631Z,43.79
2023-02-09T14:10:45.793Z,44.01
2023-02-09T14:13:19.910Z,44.00
2023-02-09T14:16:06.702Z,44.03
2023-02-09T14:19:41.810Z,44.03
2023-02-09T14:22:43.833Z,44.02
2023-02-09T14:25:14.199Z,44.16
2023-02-09T14:27:41.171Z,44.56
2023-02-09T14:30:24.974Z,44.58
2023-02-09T14:32:56.214Z,44.92
2023-02-09T14:35:30.821Z,45.02
2023-02-09T14:38:01.234Z,45.43
2023-02-09T14:40:29.506Z,45.33
2023-02-09T14:43:02.582Z,45.69
2023-02-09T14:45:35.539Z,45.96
2023-02-09T14:48:18.169Z,46.03
2023-02-09T14:50:46.189Z,46.07
2023-02-09T14:53:14.317Z,46.30
2023-02-09T14:55:41.722Z,46.56
2023-02-09T14:58:22.709Z,46.92
2023-02-09T15:00:50.405Z,47.15
2023-02-09T15:03:17.559Z,47.35
2023-02-09T15:05:46.693Z,47.67
2023-02-09T15:08:22.231Z,47.84
2023-02-09T15:10:52.794Z,48.07
2023-02-09T15:13:20.867Z,48.52
2023-02-09T15:15:53.035Z,48.71
2023-02-09T15:18:25.086Z,49.09
2023-02-09T15:20:52.188Z,49.45
2023-02-09T15:23:19.770Z,49.77
2023-02-09T15:25:47.534Z,50.10
2023-02-09T15:28:31.752Z,50.29
2023-02-09T15:30:58.779Z,50.79
2023-02-09T15:33:26.277Z,51.02
2023-02-09T15:35:53.654Z,51.29
2023-02-09T15:38:20.502Z,51.56
2023-02-09T15:41:08.120Z,51.78
2023-02-09T15:43:53.710Z,51.96
2023-02-09T15:46:40.858Z,52.07
2023-02-09T15:49:07.851Z,52.52
2023-02-09T15:51:36.615Z,52.66
2023-02-09T15:54:11.580Z,52.98
2023-02-09T15:56:38.381Z,53.19
2023-02-09T15:59:05.498Z,53.15
2023-02-09T16:01:33.933Z,53.22
2023-02-09T16:04:13.500Z,53.06
2023-02-09T16:06:51.971Z,53.28
2023-02-09T16:09:27.051Z,53.53
2023-02-09T16:11:55.947Z,53.78
2023-02-09T16:14:24.814Z,53.98
2023-02-09T16:16:52.140Z,53.45
2023-02-09T16:19:20.652Z,53.54
2023-02-09T16:21:56.778Z,53.64
2023-02-09T16:24:33.492Z,53.64
2023-02-09T16:27:01.371Z,53.86
2023-02-09T16:29:28.307Z,53.89
2023-02-09T16:31:55.287Z,53.81
2023-02-09T16:34:25.007Z,54.08
2023-02-09T16:36:52.096Z,53.82
2023-02-09T16:39:20.505Z,53.72
2023-02-09T16:41:47.641Z,54.00
2023-02-09T16:44:23.050Z,54.15
2023-02-09T16:46:54.723Z,54.29
2023-02-09T16:49:36.258Z,54.18
2023-02-09T16:52:18.102Z,54.17
2023-02-09T16:54:47.081Z,54.38
2023-02-09T16:57:15.900Z,54.64
2023-02-09T16:59:43.222Z,54.65
2023-02-09T17:02:34.835Z,55.15
2023-02-09T17:05:07.615Z,55.35
2023-02-09T17:07:45.356Z,55.62
2023-02-09T17:10:23.336Z,55.69
2023-02-09T17:12:52.608Z,56.04
2023-02-09T17:15:31.782Z,56.04
2023-02-09T17:18:03.541Z,56.06
2023-02-09T17:20:35.733Z,56.40
2023-02-09T17:23:03.405Z,56.27
2023-02-09T17:25:31.122Z,56.33
2023-02-09T17:27:58.267Z,56.59
2023-02-09T17:30:25.204Z,56.73
2023-02-09T17:32:59.599Z,56.79
2023-02-09T17:36:23.902Z,56.87
2023-02-09T17:38:42.613Z,57.08
2023-02-09T17:41:32.993Z,57.05
2023-02-09T17:44:19.598Z,56.95
2023-02-09T17:46:51.008Z,57.10
2023-02-09T17:49:17.986Z,57.06
2023-02-09T17:51:45.628Z,57.14
2023-02-09T17:54:13.849Z,57.11
2023-02-09T17:56:41.933Z,57.20
2023-02-09T17:59:09.206Z,57.38
2023-02-09T18:01:43.807Z,57.50
2023-02-09T18:04:21.963Z,57.54
2023-02-09T18:06:49.020Z,57.58
2023-02-09T18:09:16.083Z,57.84
2023-02-09T18:11:56.063Z,57.88
2023-02-09T18:14:30.347Z,58.15
2023-02-09T18:17:01.265Z,58.20
2023-02-09T18:19:29.123Z,58.13
2023-02-09T18:22:01.236Z,58.10
2023-02-09T18:24:31.725Z,58.14
2023-02-09T18:27:01.430Z,58.24
2023-02-09T18:29:29.710Z,58.20
2023-02-09T18:32:00.345Z,58.26
2023-02-09T18:34:30.496Z,58.55
2023-02-09T18:36:57.517Z,58.47
2023-02-09T18:39:24.809Z,58.73
2023-02-09T18:41:55.455Z,58.77
2023-02-09T18:44:27.957Z,58.84
2023-02-09T18:46:56.698Z,59.03
2023-02-09T18:49:23.570Z,59.20
2023-02-09T18:51:51.557Z,59.24
2023-02-09T18:54:18.790Z,59.24
2023-02-09T18:56:45.612Z,59.34
2023-02-09T18:59:13.050Z,59.39
2023-02-09T19:01:40.389Z,59.39
2023-02-09T19:04:07.648Z,59.41
2023-02-09T19:06:35.005Z,59.48
2023-02-09T19:09:03.001Z,59.40
2023-02-09T19:11:30.282Z,59.60
2023-02-09T19:14:15.810Z,59.61
2023-02-09T19:16:42.770Z,59.66
2023-02-09T19:19:12.808Z,59.80
2023-02-09T19:21:40.076Z,59.87
2023-02-09T19:24:07.158Z,59.96
2023-02-09T19:26:34.021Z,60.04
2023-02-09T19:29:01.203Z,60.09
2023-02-09T19:31:30.310Z,60.23
2023-02-09T19:33:57.229Z,60.07
2023-02-09T19:36:27.269Z,60.24
2023-02-09T19:38:55.238Z,60.24
2023-02-09T19:41:23.165Z,60.38
2023-02-09T19:43:53.929Z,60.49
2023-02-09T19:46:21.279Z,60.36
2023-02-09T19:48:49.032Z,60.61
2023-02-09T19:51:15.859Z,60.49
2023-02-09T19:53:46.612Z,60.60
2023-02-09T19:56:16.363Z,60.74
2023-02-09T19:58:43.879Z,60.85
2023-02-09T20:01:11.572Z,60.75
2023-02-09T20:03:39.049Z,60.77
2023-02-09T20:06:08.915Z,60.91
2023-02-09T20:08:37.632Z,60.89
2023-02-09T20:11:14.891Z,61.01
2023-02-09T20:13:42.272Z,61.00
2023-02-09T20:16:12.708Z,61.08
2023-02-09T20:18:40.157Z,61.08
2023-02-09T20:21:10.244Z,61.31
2023-02-09T20:23:38.734Z,61.32
2023-02-09T20:26:18.006Z,61.55
2023-02-09T20:28:45.154Z,61.59
2023-02-09T20:31:15.027Z,61.67
2023-02-09T20:33:43.179Z,61.91
2023-02-09T20:36:13.137Z,61.95
2023-02-09T20:38:40.091Z,62.33
2023-02-09T20:41:11.433Z,62.30
2023-02-09T20:43:57.710Z,62.50
2023-02-09T20:46:45.175Z,62.60
2023-02-09T20:49:13.299Z,62.67
2023-02-09T20:51:40.341Z,62.92
2023-02-09T20:54:07.497Z,62.92
2023-02-09T20:56:38.008Z,62.93
2023-02-09T20:59:06.128Z,63.16
2023-02-09T21:01:38.731Z,63.17
2023-02-09T21:04:06.921Z,63.24
2023-02-09T21:06:36.415Z,63.31
2023-02-09T21:09:05.070Z,63.55
2023-02-09T21:11:34.277Z,63.74
2023-02-09T21:14:01.595Z,63.69
2023-02-09T21:16:30.217Z,63.85
2023-02-09T21:18:58.444Z,64.06
2023-02-09T21:21:26.457Z,64.20
2023-02-09T21:23:53.388Z,64.31
2023-02-09T21:26:23.954Z,64.40
2023-02-09T21:28:56.803Z,64.37
2023-02-09T21:31:26.182Z,64.53
2023-02-09T21:33:55.232Z,64.53
2023-02-09T21:36:22.580Z,64.64
2023-02-09T21:38:49.961Z,64.67
2023-02-09T21:41:39.565Z,64.54
2023-02-09T21:44:11.966Z,64.72
2023-02-09T21:46:38.874Z,64.65
2023-02-09T21:49:06.894Z,64.86
2023-02-09T21:51:35.966Z,64.92
2023-02-09T21:54:03.243Z,64.84
2023-02-09T21:56:30.085Z,64.88
2023-02-09T21:58:56.929Z,64.94
2023-02-09T22:01:24.144Z,64.88
2023-02-09T22:03:56.501Z,64.94
2023-02-09T22:06:24.674Z,65.03
2023-02-09T22:08:51.901Z,65.02
2023-02-09T22:11:19.217Z,65.00
2023-02-09T22:13:46.476Z,65.07
2023-02-09T22:16:17.459Z,65.00
2023-02-09T22:18:44.199Z,65.06
2023-02-09T22:21:10.943Z,64.99
2023-02-09T22:23:37.862Z,64.82
2023-02-09T22:26:05.178Z,64.85
2023-02-09T22:28:36.150Z,64.77
2023-02-09T22:31:29.006Z,64.73
2023-02-09T22:33:57.931Z,64.67
2023-02-09T22:36:25.177Z,64.51
2023-02-09T22:38:51.854Z,64.63
2023-02-09T22:41:20.767Z,64.49
2023-02-09T22:44:01.709Z,64.52
2023-02-09T22:46:35.628Z,64.44
2023-02-09T22:49:07.276Z,64.26
2023-02-09T22:51:34.789Z,64.25
2023-02-09T22:54:01.894Z,64.27
2023-02-09T22:56:29.295Z,64.12
2023-02-09T22:58:57.270Z,64.27
2023-02-09T23:01:24.093Z,64.17
2023-02-09T23:03:50.931Z,64.28
2023-02-09T23:06:19.477Z,64.17
2023-02-09T23:08:46.588Z,64.24
2023-02-09T23:11:14.980Z,64.15
2023-02-09T23:13:42.353Z,64.17
2023-02-09T23:16:17.302Z,64.24
2023-02-09T23:18:49.116Z,63.98
2023-02-09T23:21:15.875Z,63.91
2023-02-09T23:23:42.704Z,63.82
2023-02-09T23:26:09.600Z,63.76
2023-02-09T23:28:36.554Z,63.48
2023-02-09T23:31:07.676Z,63.33
2023-02-09T23:33:35.244Z,63.14
2023-02-09T23:36:04.459Z,62.95
2023-02-09T23:38:31.188Z,63.01
2023-02-09T23:40:57.938Z,62.91
2023-02-09T23:43:25.518Z,62.93
2023-02-09T23:45:52.904Z,62.77
2023-02-09T23:48:20.557Z,62.63
2023-02-09T23:50:47.735Z,62.38
2023-02-09T23:53:14.524Z,62.10
2023-02-09T23:55:41.966Z,62.01
2023-02-09T23:58:09.398Z,61.78
